sensor_id;sensor_type;location;lat;lon;timestamp;pressure;altitude;pressure_sealevel;temperature;humidity
14295;BME280;7231;59.370;18.016;2024-03-23T00:55:26;99257.50;;;3.62;99.79
14295;BME280;7231;59.370;18.016;2024-03-23T00:57:52;99274.16;;;3.70;99.32
14295;BME280;7231;59.370;18.016;2024-03-23T01:00:19;99266.28;;;3.67;98.78
14295;BME280;7231;59.370;18.016;2024-03-23T01:02:46;99282.84;;;3.72;98.56
14295;BME280;7231;59.370;18.016;2024-03-23T01:05:13;99283.59;;;3.68;98.58
14295;BME280;7231;59.370;18.016;2024-03-23T01:07:39;99272.31;;;3.66;98.68
14295;BME280;7231;59.370;18.016;2024-03-23T01:10:07;99282.56;;;3.63;98.34
14295;BME280;7231;59.370;18.016;2024-03-23T01:12:34;99282.47;;;3.59;98.27
14295;BME280;7231;59.370;18.016;2024-03-23T01:15:02;99279.84;;;3.58;97.90
14295;BME280;7231;59.370;18.016;2024-03-23T01:17:28;99265.78;;;3.50;98.04
14295;BME280;7231;59.370;18.016;2024-03-23T01:19:55;99270.03;;;3.48;97.89
14295;BME280;7231;59.370;18.016;2024-03-23T01:22:21;99271.66;;;3.44;97.63
14295;BME280;7231;59.370;18.016;2024-03-23T01:24:48;99276.91;;;3.47;97.66
14295;BME280;7231;59.370;18.016;2024-03-23T01:27:14;99268.91;;;3.40;97.55
14295;BME280;7231;59.370;18.016;2024-03-23T01:29:44;99277.59;;;3.42;97.42
14295;BME280;7231;59.370;18.016;2024-03-23T01:32:10;99281.81;;;3.38;97.21
14295;BME280;7231;59.370;18.016;2024-03-23T01:34:37;99283.47;;;3.36;96.92
14295;BME280;7231;59.370;18.016;2024-03-23T01:37:04;99254.16;;;3.10;97.03
14295;BME280;7231;59.370;18.016;2024-03-23T01:39:31;99293.75;;;3.33;96.89
14295;BME280;7231;59.370;18.016;2024-03-23T01:41:57;99294.63;;;3.34;96.68
14295;BME280;7231;59.370;18.016;2024-03-23T01:44:24;99289.25;;;3.28;96.73
14295;BME280;7231;59.370;18.016;2024-03-23T01:46:52;99291.00;;;3.29;96.49
14295;BME280;7231;59.370;18.016;2024-03-23T01:49:19;99287.44;;;3.25;96.45
14295;BME280;7231;59.370;18.016;2024-03-23T01:51:46;99289.94;;;3.22;96.57
14295;BME280;7231;59.370;18.016;2024-03-23T01:54:13;99278.59;;;3.18;96.55
14295;BME280;7231;59.370;18.016;2024-03-23T01:56:39;99289.84;;;3.19;96.08
14295;BME280;7231;59.370;18.016;2024-03-23T01:59:06;99278.34;;;3.11;96.21
14295;BME280;7231;59.370;18.016;2024-03-23T02:01:33;99288.75;;;3.12;96.44
14295;BME280;7231;59.370;18.016;2024-03-23T02:04:04;99295.69;;;3.13;96.17
14295;BME280;7231;59.370;18.016;2024-03-23T02:06:30;99276.44;;;3.05;96.54
14295;BME280;7231;59.370;18.016;2024-03-23T02:08:58;99279.13;;;3.08;95.88
14295;BME280;7231;59.370;18.016;2024-03-23T02:11:24;99282.66;;;3.10;96.24
14295;BME280;7231;59.370;18.016;2024-03-23T02:13:51;99287.78;;;3.09;95.93
14295;BME280;7231;59.370;18.016;2024-03-23T02:16:17;99291.28;;;3.11;95.51
14295;BME280;7231;59.370;18.016;2024-03-23T02:18:44;99297.25;;;3.08;95.42
14295;BME280;7231;59.370;18.016;2024-03-23T02:21:11;99289.44;;;3.07;95.33
14295;BME280;7231;59.370;18.016;2024-03-23T02:23:40;99286.59;;;2.99;95.56
14295;BME280;7231;59.370;18.016;2024-03-23T02:26:06;99292.66;;;3.00;95.64
14295;BME280;7231;59.370;18.016;2024-03-23T02:28:33;99286.59;;;2.99;95.77
14295;BME280;7231;59.370;18.016;2024-03-23T02:30:59;99281.31;;;2.96;95.23
14295;BME280;7231;59.370;18.016;2024-03-23T02:33:27;99286.38;;;2.93;95.23
14295;BME280;7231;59.370;18.016;2024-03-23T02:35:56;99297.63;;;2.93;95.28
14295;BME280;7231;59.370;18.016;2024-03-23T02:38:24;99249.44;;;2.72;95.12
14295;BME280;7231;59.370;18.016;2024-03-23T02:40:51;99282.72;;;2.86;95.25
14295;BME280;7231;59.370;18.016;2024-03-23T02:43:18;99304.47;;;2.91;95.38
14295;BME280;7231;59.370;18.016;2024-03-23T02:45:44;99295.81;;;2.91;95.63
14295;BME280;7231;59.370;18.016;2024-03-23T02:48:11;99303.47;;;2.88;95.61
14295;BME280;7231;59.370;18.016;2024-03-23T02:50:38;99299.03;;;2.84;95.82
14295;BME280;7231;59.370;18.016;2024-03-23T02:53:05;99284.94;;;2.76;95.82
14295;BME280;7231;59.370;18.016;2024-03-23T02:55:31;99297.09;;;2.78;96.06
14295;BME280;7231;59.370;18.016;2024-03-23T02:57:59;99281.25;;;2.69;96.01
14295;BME280;7231;59.370;18.016;2024-03-23T03:00:27;99267.78;;;2.52;96.12
14295;BME280;7231;59.370;18.016;2024-03-23T03:02:55;99288.19;;;2.70;96.47
14295;BME280;7231;59.370;18.016;2024-03-23T03:05:21;99293.31;;;2.69;96.82
14295;BME280;7231;59.370;18.016;2024-03-23T03:07:48;99293.28;;;2.67;96.82
14295;BME280;7231;59.370;18.016;2024-03-23T03:10:14;99287.94;;;2.63;96.86
14295;BME280;7231;59.370;18.016;2024-03-23T03:12:41;99286.97;;;2.59;96.70
14295;BME280;7231;59.370;18.016;2024-03-23T03:15:09;99289.47;;;2.56;97.45
14295;BME280;7231;59.370;18.016;2024-03-23T03:17:36;99280.78;;;2.54;97.27
14295;BME280;7231;59.370;18.016;2024-03-23T03:20:03;99283.25;;;2.51;97.34
14295;BME280;7231;59.370;18.016;2024-03-23T03:22:30;99267.41;;;2.42;97.37
14295;BME280;7231;59.370;18.016;2024-03-23T03:24:57;99264.72;;;2.39;97.51
14295;BME280;7231;59.370;18.016;2024-03-23T03:27:25;99282.09;;;2.43;97.67
14295;BME280;7231;59.370;18.016;2024-03-23T03:29:51;99282.06;;;2.41;97.86
14295;BME280;7231;59.370;18.016;2024-03-23T03:32:20;99288.94;;;2.41;98.34
14295;BME280;7231;59.370;18.016;2024-03-23T03:34:46;99280.22;;;2.39;98.34
14295;BME280;7231;59.370;18.016;2024-03-23T03:37:15;99206.22;;;1.93;98.20
14295;BME280;7231;59.370;18.016;2024-03-23T03:39:41;99281.78;;;2.34;98.54
14295;BME280;7231;59.370;18.016;2024-03-23T03:42:08;99292.13;;;2.34;99.02
14295;BME280;7231;59.370;18.016;2024-03-23T03:44:35;99274.63;;;2.26;98.92
14295;BME280;7231;59.370;18.016;2024-03-23T03:47:02;99262.31;;;2.19;99.13
14295;BME280;7231;59.370;18.016;2024-03-23T03:49:30;99249.16;;;2.13;99.22
14295;BME280;7231;59.370;18.016;2024-03-23T03:51:57;99274.63;;;2.26;99.29
14295;BME280;7231;59.370;18.016;2024-03-23T03:54:23;99290.09;;;2.25;99.79
14295;BME280;7231;59.370;18.016;2024-03-23T03:56:50;99272.88;;;2.25;99.80
14295;BME280;7231;59.370;18.016;2024-03-23T03:59:17;99269.25;;;2.20;100.00
14295;BME280;7231;59.370;18.016;2024-03-23T04:01:45;99281.44;;;2.24;100.00
14295;BME280;7231;59.370;18.016;2024-03-23T04:04:11;99278.91;;;2.26;100.00
14295;BME280;7231;59.370;18.016;2024-03-23T04:06:41;99283.25;;;2.27;100.00
14295;BME280;7231;59.370;18.016;2024-03-23T04:09:07;99288.28;;;2.22;100.00
14295;BME280;7231;59.370;18.016;2024-03-23T04:11:34;99289.25;;;2.26;100.00
14295;BME280;7231;59.370;18.016;2024-03-23T04:14:00;99279.69;;;2.23;100.00
14295;BME280;7231;59.370;18.016;2024-03-23T04:16:28;99283.94;;;2.21;100.00
14295;BME280;7231;59.370;18.016;2024-03-23T04:18:54;99282.78;;;2.13;100.00
14295;BME280;7231;59.370;18.016;2024-03-23T04:21:22;99289.91;;;2.20;100.00
14295;BME280;7231;59.370;18.016;2024-03-23T04:23:49;99293.44;;;2.22;100.00
14295;BME280;7231;59.370;18.016;2024-03-23T04:26:17;99293.44;;;2.22;100.00
14295;BME280;7231;59.370;18.016;2024-03-23T04:28:43;99294.22;;;2.20;100.00
14295;BME280;7231;59.370;18.016;2024-03-23T04:31:10;99290.41;;;2.10;100.00
14295;BME280;7231;59.370;18.016;2024-03-23T04:33:36;99293.88;;;2.11;100.00
14295;BME280;7231;59.370;18.016;2024-03-23T04:36:04;99294.94;;;2.16;100.00
14295;BME280;7231;59.370;18.016;2024-03-23T04:38:30;99289.59;;;2.11;100.00
14295;BME280;7231;59.370;18.016;2024-03-23T04:40:59;99293.88;;;2.11;100.00
14295;BME280;7231;59.370;18.016;2024-03-23T04:43:27;99291.13;;;2.06;100.00
14295;BME280;7231;59.370;18.016;2024-03-23T04:45:55;99299.94;;;2.11;100.00
14295;BME280;7231;59.370;18.016;2024-03-23T04:48:22;99288.66;;;2.09;100.00
14295;BME280;7231;59.370;18.016;2024-03-23T04:50:49;99293.81;;;2.09;100.00
14295;BME280;7231;59.370;18.016;2024-03-23T04:53:17;99296.19;;;2.03;100.00
14295;BME280;7231;59.370;18.016;2024-03-23T04:55:44;99291.13;;;2.06;100.00
14295;BME280;7231;59.370;18.016;2024-03-23T04:58:12;99285.00;;;2.04;100.00
14295;BME280;7231;59.370;18.016;2024-03-23T05:00:38;99289.47;;;2.08;100.00
14295;BME280;7231;59.370;18.016;2024-03-23T05:03:06;99278.84;;;2.01;100.00
14295;BME280;7231;59.370;18.016;2024-03-23T05:05:32;99304.22;;;2.11;100.00
14295;BME280;7231;59.370;18.016;2024-03-23T05:07:59;99276.50;;;2.07;100.00
14295;BME280;7231;59.370;18.016;2024-03-23T05:10:25;99283.53;;;2.11;100.00
14295;BME280;7231;59.370;18.016;2024-03-23T05:12:53;99298.16;;;2.10;100.00
14295;BME280;7231;59.370;18.016;2024-03-23T05:15:20;99299.88;;;2.10;100.00
14295;BME280;7231;59.370;18.016;2024-03-23T05:17:47;99295.31;;;2.03;100.00
14295;BME280;7231;59.370;18.016;2024-03-23T05:20:13;99304.16;;;2.09;100.00
14295;BME280;7231;59.370;18.016;2024-03-23T05:22:42;99302.41;;;2.08;100.00
14295;BME280;7231;59.370;18.016;2024-03-23T05:25:08;99305.88;;;2.09;100.00
14295;BME280;7231;59.370;18.016;2024-03-23T05:27:35;99296.19;;;2.03;100.00
14295;BME280;7231;59.370;18.016;2024-03-23T05:30:02;99305.81;;;2.07;100.00
14295;BME280;7231;59.370;18.016;2024-03-23T05:32:33;99277.75;;;1.94;100.00
14295;BME280;7231;59.370;18.016;2024-03-23T05:34:59;99303.28;;;2.09;100.00
14295;BME280;7231;59.370;18.016;2024-03-23T05:37:26;99301.63;;;2.11;100.00
14295;BME280;7231;59.370;18.016;2024-03-23T05:39:52;99289.38;;;2.05;100.00
14295;BME280;7231;59.370;18.016;2024-03-23T05:42:19;99298.28;;;2.13;100.00
14295;BME280;7231;59.370;18.016;2024-03-23T05:44:46;99286.88;;;2.08;100.00
14295;BME280;7231;59.370;18.016;2024-03-23T05:47:13;99255.44;;;1.96;100.00
14295;BME280;7231;59.370;18.016;2024-03-23T05:49:43;99298.63;;;2.22;100.00
14295;BME280;7231;59.370;18.016;2024-03-23T05:52:10;99302.13;;;2.24;100.00
14295;BME280;7231;59.370;18.016;2024-03-23T05:54:36;99276.88;;;2.17;100.00
14295;BME280;7231;59.370;18.016;2024-03-23T05:57:04;99290.16;;;2.26;100.00
14295;BME280;7231;59.370;18.016;2024-03-23T05:59:30;99284.16;;;2.27;100.00
14295;BME280;7231;59.370;18.016;2024-03-23T06:01:57;99290.47;;;2.36;100.00
14295;BME280;7231;59.370;18.016;2024-03-23T06:04:24;99295.75;;;2.39;100.00
14295;BME280;7231;59.370;18.016;2024-03-23T06:06:52;99288.97;;;2.42;100.00
14295;BME280;7231;59.370;18.016;2024-03-23T06:09:18;99298.63;;;2.46;100.00
14295;BME280;7231;59.370;18.016;2024-03-23T06:11:46;99302.19;;;2.50;100.00
14295;BME280;7231;59.370;18.016;2024-03-23T06:14:12;99287.59;;;2.52;100.00
14295;BME280;7231;59.370;18.016;2024-03-23T06:16:39;99289.53;;;2.57;100.00
14295;BME280;7231;59.370;18.016;2024-03-23T06:19:06;99304.28;;;2.61;100.00
14295;BME280;7231;59.370;18.016;2024-03-23T06:21:33;99292.22;;;2.62;100.00
14295;BME280;7231;59.370;18.016;2024-03-23T06:24:00;99294.31;;;2.72;100.00
14295;BME280;7231;59.370;18.016;2024-03-23T06:26:28;99306.41;;;2.73;100.00
14295;BME280;7231;59.370;18.016;2024-03-23T06:28:54;99291.72;;;2.72;100.00
14295;BME280;7231;59.370;18.016;2024-03-23T06:31:22;99301.66;;;2.85;100.00
14295;BME280;7231;59.370;18.016;2024-03-23T06:33:48;99300.94;;;2.89;100.00
14295;BME280;7231;59.370;18.016;2024-03-23T06:36:15;99301.03;;;2.92;100.00
14295;BME280;7231;59.370;18.016;2024-03-23T06:38:41;99302.06;;;2.98;100.00
14295;BME280;7231;59.370;18.016;2024-03-23T06:41:09;99302.31;;;3.05;100.00
14295;BME280;7231;59.370;18.016;2024-03-23T06:43:36;99310.28;;;3.11;100.00
14295;BME280;7231;59.370;18.016;2024-03-23T06:46:04;99314.94;;;3.21;100.00
14295;BME280;7231;59.370;18.016;2024-03-23T06:48:30;99317.25;;;3.39;100.00
14295;BME280;7231;59.370;18.016;2024-03-23T06:50:57;99301.72;;;3.39;100.00
14295;BME280;7231;59.370;18.016;2024-03-23T06:53:23;99315.97;;;3.53;100.00
14295;BME280;7231;59.370;18.016;2024-03-23T06:55:51;99319.78;;;3.65;100.00
14295;BME280;7231;59.370;18.016;2024-03-23T06:58:20;99326.03;;;3.71;100.00
14295;BME280;7231;59.370;18.016;2024-03-23T07:00:47;99332.19;;;3.75;100.00
14295;BME280;7231;59.370;18.016;2024-03-23T07:03:14;99325.38;;;3.78;100.00
14295;BME280;7231;59.370;18.016;2024-03-23T07:05:41;99327.44;;;3.88;100.00
14295;BME280;7231;59.370;18.016;2024-03-23T07:08:08;99329.47;;;3.99;100.00
14295;BME280;7231;59.370;18.016;2024-03-23T07:10:37;99315.44;;;3.92;100.00
14295;BME280;7231;59.370;18.016;2024-03-23T07:13:04;99287.38;;;3.79;100.00
14295;BME280;7231;59.370;18.016;2024-03-23T07:15:33;99326.50;;;4.15;100.00
14295;BME280;7231;59.370;18.016;2024-03-23T07:17:59;99322.41;;;4.23;100.00
14295;BME280;7231;59.370;18.016;2024-03-23T07:20:26;99320.19;;;4.37;100.00
14295;BME280;7231;59.370;18.016;2024-03-23T07:22:53;99316.28;;;4.51;100.00
14295;BME280;7231;59.370;18.016;2024-03-23T07:25:20;99295.19;;;4.39;99.48
14295;BME280;7231;59.370;18.016;2024-03-23T07:27:47;99332.00;;;4.57;99.81
14295;BME280;7231;59.370;18.016;2024-03-23T07:30:14;99321.34;;;4.46;98.45
14295;BME280;7231;59.370;18.016;2024-03-23T07:32:44;99328.38;;;4.50;97.77
14295;BME280;7231;59.370;18.016;2024-03-23T07:35:11;99321.56;;;4.54;97.79
14295;BME280;7231;59.370;18.016;2024-03-23T07:37:37;99328.50;;;4.55;97.64
14295;BME280;7231;59.370;18.016;2024-03-23T07:40:05;99327.78;;;4.61;97.55
14295;BME280;7231;59.370;18.016;2024-03-23T07:42:32;99320.78;;;4.58;96.53
14295;BME280;7231;59.370;18.016;2024-03-23T07:44:59;99325.94;;;4.56;96.54
14295;BME280;7231;59.370;18.016;2024-03-23T07:47:25;99326.88;;;4.59;96.25
14295;BME280;7231;59.370;18.016;2024-03-23T07:49:54;99295.75;;;4.60;97.84
14295;BME280;7231;59.370;18.016;2024-03-23T07:52:20;99324.69;;;5.07;97.52
14295;BME280;7231;59.370;18.016;2024-03-23T07:54:47;99317.16;;;5.17;97.05
14295;BME280;7231;59.370;18.016;2024-03-23T07:57:13;99316.63;;;5.32;95.84
14295;BME280;7231;59.370;18.016;2024-03-23T07:59:40;99315.91;;;5.38;95.68
14295;BME280;7231;59.370;18.016;2024-03-23T08:02:06;99315.16;;;5.43;94.54
14295;BME280;7231;59.370;18.016;2024-03-23T08:04:33;99308.09;;;5.38;95.00
14295;BME280;7231;59.370;18.016;2024-03-23T08:07:01;99310.09;;;5.48;93.62
14295;BME280;7231;59.370;18.016;2024-03-23T08:09:28;99311.72;;;5.44;92.37
14295;BME280;7231;59.370;18.016;2024-03-23T08:11:54;99303.41;;;5.23;91.32
14295;BME280;7231;59.370;18.016;2024-03-23T08:14:21;99308.88;;;5.34;93.02
14295;BME280;7231;59.370;18.016;2024-03-23T08:16:47;99318.56;;;5.41;92.31
14295;BME280;7231;59.370;18.016;2024-03-23T08:19:16;99312.44;;;5.37;91.57
14295;BME280;7231;59.370;18.016;2024-03-23T08:21:42;99289.78;;;5.32;91.72
14295;BME280;7231;59.370;18.016;2024-03-23T08:24:11;99309.59;;;5.64;91.57
14295;BME280;7231;59.370;18.016;2024-03-23T08:26:37;99311.50;;;5.71;90.39
14295;BME280;7231;59.370;18.016;2024-03-23T08:29:05;99307.84;;;5.63;89.65
14295;BME280;7231;59.370;18.016;2024-03-23T08:31:31;99296.59;;;5.64;89.55
14295;BME280;7231;59.370;18.016;2024-03-23T08:33:58;99311.53;;;5.73;88.78
14295;BME280;7231;59.370;18.016;2024-03-23T08:36:24;99303.59;;;5.67;89.42
14295;BME280;7231;59.370;18.016;2024-03-23T08:38:52;99278.38;;;5.63;89.61
14295;BME280;7231;59.370;18.016;2024-03-23T08:41:21;99310.22;;;5.90;89.63
14295;BME280;7231;59.370;18.016;2024-03-23T08:43:48;99300.34;;;5.77;88.10
14295;BME280;7231;59.370;18.016;2024-03-23T08:46:15;99299.91;;;5.57;86.94
14295;BME280;7231;59.370;18.016;2024-03-23T08:48:43;99311.63;;;5.40;87.76
14295;BME280;7231;59.370;18.016;2024-03-23T08:51:12;99309.97;;;5.43;87.75
14295;BME280;7231;59.370;18.016;2024-03-23T08:53:39;99303.97;;;5.46;88.59
14295;BME280;7231;59.370;18.016;2024-03-23T08:56:06;99287.47;;;5.44;88.82
14295;BME280;7231;59.370;18.016;2024-03-23T08:58:36;99294.63;;;5.54;87.91
14295;BME280;7231;59.370;18.016;2024-03-23T09:01:04;99311.88;;;5.50;87.23
14295;BME280;7231;59.370;18.016;2024-03-23T09:03:30;99313.38;;;5.41;87.61
14295;BME280;7231;59.370;18.016;2024-03-23T09:05:58;99307.63;;;5.54;87.97
14295;BME280;7231;59.370;18.016;2024-03-23T09:08:24;99317.28;;;5.60;87.40
14295;BME280;7231;59.370;18.016;2024-03-23T09:10:52;99306.09;;;5.62;88.21
14295;BME280;7231;59.370;18.016;2024-03-23T09:13:18;99307.44;;;5.84;89.58
14295;BME280;7231;59.370;18.016;2024-03-23T09:15:48;99305.63;;;6.19;89.23
14295;BME280;7231;59.370;18.016;2024-03-23T09:18:14;99305.91;;;6.33;88.18
14295;BME280;7231;59.370;18.016;2024-03-23T09:20:41;99301.00;;;6.46;87.99
14295;BME280;7231;59.370;18.016;2024-03-23T09:23:07;99307.41;;;6.64;87.40
14295;BME280;7231;59.370;18.016;2024-03-23T09:25:38;99311.63;;;6.57;85.38
14295;BME280;7231;59.370;18.016;2024-03-23T09:28:05;99302.63;;;6.41;85.01
14295;BME280;7231;59.370;18.016;2024-03-23T09:30:34;99298.47;;;6.51;85.39
14295;BME280;7231;59.370;18.016;2024-03-23T09:33:02;99300.53;;;6.67;84.86
14295;BME280;7231;59.370;18.016;2024-03-23T09:35:29;99305.91;;;6.76;84.77
14295;BME280;7231;59.370;18.016;2024-03-23T09:37:55;99301.72;;;6.84;84.92
14295;BME280;7231;59.370;18.016;2024-03-23T09:40:23;99297.53;;;6.93;84.77
14295;BME280;7231;59.370;18.016;2024-03-23T09:42:50;99304.59;;;7.00;84.02
14295;BME280;7231;59.370;18.016;2024-03-23T09:45:21;99286.00;;;6.80;83.63
14295;BME280;7231;59.370;18.016;2024-03-23T09:47:47;99308.00;;;6.96;83.44
14295;BME280;7231;59.370;18.016;2024-03-23T09:50:17;99299.44;;;7.03;83.22
14295;BME280;7231;59.370;18.016;2024-03-23T09:52:45;99274.22;;;7.02;83.08
14295;BME280;7231;59.370;18.016;2024-03-23T09:55:13;99293.56;;;7.14;81.83
14295;BME280;7231;59.370;18.016;2024-03-23T09:57:39;99297.91;;;7.15;81.55
14295;BME280;7231;59.370;18.016;2024-03-23T10:00:07;99304.72;;;7.07;79.88
14295;BME280;7231;59.370;18.016;2024-03-23T10:02:34;99277.97;;;6.68;80.50
14295;BME280;7231;59.370;18.016;2024-03-23T10:05:02;99300.69;;;6.76;80.82
14295;BME280;7231;59.370;18.016;2024-03-23T10:07:29;99300.84;;;6.84;81.79
14295;BME280;7231;59.370;18.016;2024-03-23T10:09:57;99257.16;;;6.69;80.98
14295;BME280;7231;59.370;18.016;2024-03-23T10:12:23;99273.13;;;6.89;80.83
14295;BME280;7231;59.370;18.016;2024-03-23T10:14:51;99283.78;;;7.01;79.96
14295;BME280;7231;59.370;18.016;2024-03-23T10:17:18;99285.88;;;7.22;80.53
14295;BME280;7231;59.370;18.016;2024-03-23T10:19:47;99282.50;;;7.29;79.35
14295;BME280;7231;59.370;18.016;2024-03-23T10:22:17;99232.56;;;7.03;78.91
14295;BME280;7231;59.370;18.016;2024-03-23T10:24:47;99246.81;;;7.25;78.97
14295;BME280;7231;59.370;18.016;2024-03-23T10:27:15;99278.41;;;7.45;77.82
14295;BME280;7231;59.370;18.016;2024-03-23T10:29:43;99270.09;;;7.70;79.73
14295;BME280;7231;59.370;18.016;2024-03-23T10:32:10;99266.91;;;8.62;82.19
14295;BME280;7231;59.370;18.016;2024-03-23T10:34:38;99275.50;;;9.48;80.29
14295;BME280;7231;59.370;18.016;2024-03-23T10:37:05;99294.78;;;9.60;75.30
14295;BME280;7231;59.370;18.016;2024-03-23T10:39:33;99255.19;;;9.13;72.70
14295;BME280;7231;59.370;18.016;2024-03-23T10:42:04;99271.03;;;9.34;73.23
14295;BME280;7231;59.370;18.016;2024-03-23T10:44:31;99278.19;;;9.57;72.91
14295;BME280;7231;59.370;18.016;2024-03-23T10:46:59;99267.78;;;9.66;71.27
14295;BME280;7231;59.370;18.016;2024-03-23T10:49:26;99272.88;;;9.48;69.35
14295;BME280;7231;59.370;18.016;2024-03-23T10:51:57;99268.34;;;9.22;69.67
14295;BME280;7231;59.370;18.016;2024-03-23T10:54:24;99278.06;;;9.38;70.09
14295;BME280;7231;59.370;18.016;2024-03-23T10:56:53;99270.28;;;9.51;69.06
14295;BME280;7231;59.370;18.016;2024-03-23T10:59:22;99268.38;;;9.28;68.26
14295;BME280;7231;59.370;18.016;2024-03-23T11:01:57;99265.00;;;9.41;68.28
14295;BME280;7231;59.370;18.016;2024-03-23T11:04:30;99272.50;;;10.25;69.21
14295;BME280;7231;59.370;18.016;2024-03-23T11:06:58;99262.13;;;10.73;67.59
14295;BME280;7231;59.370;18.016;2024-03-23T11:09:41;99265.53;;;10.40;64.40
14295;BME280;7231;59.370;18.016;2024-03-23T11:12:29;99259.31;;;10.16;64.58
14295;BME280;7231;59.370;18.016;2024-03-23T11:15:01;99263.81;;;10.36;65.62
14295;BME280;7231;59.370;18.016;2024-03-23T11:17:28;99250.75;;;10.56;64.90
14295;BME280;7231;59.370;18.016;2024-03-23T11:19:56;99256.06;;;11.08;64.73
14295;BME280;7231;59.370;18.016;2024-03-23T11:22:40;99261.28;;;11.72;62.15
14295;BME280;7231;59.370;18.016;2024-03-23T11:25:17;99258.69;;;11.49;60.26
14295;BME280;7231;59.370;18.016;2024-03-23T11:27:44;99250.81;;;11.38;60.91
14295;BME280;7231;59.370;18.016;2024-03-23T11:30:14;99251.66;;;10.86;60.19
14295;BME280;7231;59.370;18.016;2024-03-23T11:32:43;99255.16;;;10.74;61.07
14295;BME280;7231;59.370;18.016;2024-03-23T11:35:10;99246.41;;;10.75;61.73
14295;BME280;7231;59.370;18.016;2024-03-23T11:37:38;99251.69;;;11.04;60.77
14295;BME280;7231;59.370;18.016;2024-03-23T11:40:17;99256.84;;;10.58;58.86
14295;BME280;7231;59.370;18.016;2024-03-23T11:42:44;99237.69;;;10.82;62.21
14295;BME280;7231;59.370;18.016;2024-03-23T11:45:13;99248.16;;;11.57;60.64
14295;BME280;7231;59.370;18.016;2024-03-23T11:47:42;99251.56;;;12.12;59.92
14295;BME280;7231;59.370;18.016;2024-03-23T11:50:08;99244.53;;;12.17;58.14
14295;BME280;7231;59.370;18.016;2024-03-23T11:52:36;99251.53;;;12.20;56.46
14295;BME280;7231;59.370;18.016;2024-03-23T11:55:04;99251.63;;;11.92;56.51
14295;BME280;7231;59.370;18.016;2024-03-23T11:57:33;99250.78;;;11.74;56.45
14295;BME280;7231;59.370;18.016;2024-03-23T12:00:00;99238.56;;;11.04;56.34
14295;BME280;7231;59.370;18.016;2024-03-23T12:02:28;99249.00;;;10.57;57.27
14295;BME280;7231;59.370;18.016;2024-03-23T12:04:54;99252.44;;;10.44;57.79
14295;BME280;7231;59.370;18.016;2024-03-23T12:07:21;99239.34;;;10.28;57.79
14295;BME280;7231;59.370;18.016;2024-03-23T12:10:02;99248.78;;;10.02;57.80
14295;BME280;7231;59.370;18.016;2024-03-23T12:12:29;99250.53;;;10.01;58.45
14295;BME280;7231;59.370;18.016;2024-03-23T12:15:03;99246.97;;;9.87;58.07
14295;BME280;7231;59.370;18.016;2024-03-23T12:17:32;99246.88;;;9.69;58.71
14295;BME280;7231;59.370;18.016;2024-03-23T12:19:58;99243.34;;;9.64;59.26
14295;BME280;7231;59.370;18.016;2024-03-23T12:22:26;99234.50;;;9.45;58.71
14295;BME280;7231;59.370;18.016;2024-03-23T12:24:52;99252.25;;;9.98;60.60
14295;BME280;7231;59.370;18.016;2024-03-23T12:27:19;99240.28;;;10.68;59.20
14295;BME280;7231;59.370;18.016;2024-03-23T12:29:45;99250.81;;;11.23;57.85
14295;BME280;7231;59.370;18.016;2024-03-23T12:32:13;99237.69;;;11.37;56.28
14295;BME280;7231;59.370;18.016;2024-03-23T12:34:41;99244.63;;;10.59;55.42
14295;BME280;7231;59.370;18.016;2024-03-23T12:37:09;99236.81;;;10.85;56.32
14295;BME280;7231;59.370;18.016;2024-03-23T12:39:35;99210.53;;;11.67;56.49
14295;BME280;7231;59.370;18.016;2024-03-23T12:42:03;99232.84;;;12.75;55.78
14295;BME280;7231;59.370;18.016;2024-03-23T12:44:29;99223.97;;;13.86;53.78
14295;BME280;7231;59.370;18.016;2024-03-23T12:46:56;99207.59;;;14.33;51.39
14295;BME280;7231;59.370;18.016;2024-03-23T12:49:22;99205.91;;;14.92;49.88
14295;BME280;7231;59.370;18.016;2024-03-23T12:51:55;99210.63;;;14.70;48.40
14295;BME280;7231;59.370;18.016;2024-03-23T12:54:22;99199.34;;;13.90;48.18
14295;BME280;7231;59.370;18.016;2024-03-23T12:56:50;99204.00;;;14.39;48.56
14295;BME280;7231;59.370;18.016;2024-03-23T12:59:16;99197.94;;;14.95;47.14
14295;BME280;7231;59.370;18.016;2024-03-23T13:01:44;99206.63;;;15.52;46.72
14295;BME280;7231;59.370;18.016;2024-03-23T13:04:10;99200.91;;;15.27;46.19
14295;BME280;7231;59.370;18.016;2024-03-23T13:06:38;99181.66;;;14.01;45.30
14295;BME280;7231;59.370;18.016;2024-03-23T13:09:05;99222.25;;;12.88;47.13
14295;BME280;7231;59.370;18.016;2024-03-23T13:11:32;99218.13;;;12.45;47.04
14295;BME280;7231;59.370;18.016;2024-03-23T13:13:58;99224.47;;;12.01;47.79
14295;BME280;7231;59.370;18.016;2024-03-23T13:16:25;99207.94;;;11.56;49.20
14295;BME280;7231;59.370;18.016;2024-03-23T13:18:51;99215.81;;;11.39;49.46
14295;BME280;7231;59.370;18.016;2024-03-23T13:21:18;99207.03;;;11.66;50.59
14295;BME280;7231;59.370;18.016;2024-03-23T13:23:46;99214.94;;;11.57;49.50
14295;BME280;7231;59.370;18.016;2024-03-23T13:26:17;99212.34;;;11.10;49.95
14295;BME280;7231;59.370;18.016;2024-03-23T13:28:43;99195.75;;;11.06;50.62
14295;BME280;7231;59.370;18.016;2024-03-23T13:31:10;99216.72;;;11.20;50.81
14295;BME280;7231;59.370;18.016;2024-03-23T13:33:36;99215.78;;;11.67;50.96
14295;BME280;7231;59.370;18.016;2024-03-23T13:36:04;99228.88;;;11.90;50.21
14295;BME280;7231;59.370;18.016;2024-03-23T13:38:30;99205.25;;;11.76;51.09
14295;BME280;7231;59.370;18.016;2024-03-23T13:40:58;99229.75;;;11.93;51.39
14295;BME280;7231;59.370;18.016;2024-03-23T13:43:27;99232.28;;;12.18;52.07
14295;BME280;7231;59.370;18.016;2024-03-23T13:45:55;99221.78;;;12.18;51.34
14295;BME280;7231;59.370;18.016;2024-03-23T13:48:24;99234.91;;;12.21;51.55
14295;BME280;7231;59.370;18.016;2024-03-23T13:50:58;99231.50;;;11.75;52.41
14295;BME280;7231;59.370;18.016;2024-03-23T13:53:24;99231.56;;;11.46;51.79
14295;BME280;7231;59.370;18.016;2024-03-23T13:55:51;99231.53;;;10.63;53.22
14295;BME280;7231;59.370;18.016;2024-03-23T13:58:17;99184.88;;;9.60;54.73
14295;BME280;7231;59.370;18.016;2024-03-23T14:00:46;99240.53;;;9.35;55.95